createdAt,value
2023-05-11T00:03:01.987Z,5.03
2023-05-11T00:09:05.762Z,4.38
2023-05-11T00:15:09.810Z,4.10
2023-05-11T00:21:14.698Z,3.95
2023-05-11T00:27:18.278Z,3.75
2023-05-11T00:33:21.659Z,4.15
2023-05-11T00:39:26.678Z,4.03
2023-05-11T00:45:30.193Z,4.63
2023-05-11T00:51:33.843Z,4.18
2023-05-11T00:57:38.927Z,4.10
2023-05-11T01:03:42.585Z,4.13
2023-05-11T01:09:49.723Z,5.35
2023-05-11T01:15:56.374Z,4.63
2023-05-11T01:22:01.013Z,4.55
2023-05-11T01:28:23.562Z,4.75
2023-05-11T01:34:30.685Z,4.60
2023-05-11T01:40:34.538Z,5.10
2023-05-11T01:46:38.738Z,5.18
2023-05-11T01:52:44.152Z,4.80
2023-05-11T01:58:48.293Z,4.68
2023-05-11T02:04:52.076Z,5.38
2023-05-11T02:10:58.729Z,5.35
2023-05-11T02:17:02.950Z,4.90
2023-05-11T02:23:06.700Z,5.40
2023-05-11T02:29:11.988Z,5.40
2023-05-11T02:35:28.035Z,4.93
2023-05-11T02:41:32.058Z,4.85
2023-05-11T02:47:40.958Z,5.15
2023-05-11T02:53:45.499Z,5.15
2023-05-11T02:59:49.733Z,5.43
2023-05-11T03:05:54.508Z,4.60
2023-05-11T03:11:58.551Z,4.60
2023-05-11T03:18:02.547Z,5.15
2023-05-11T03:24:08.397Z,5.50
2023-05-11T03:30:13.044Z,5.15
2023-05-11T03:36:16.882Z,5.50
2023-05-11T03:42:22.760Z,4.95
2023-05-11T03:48:26.145Z,4.65
2023-05-11T03:54:29.632Z,4.65
2023-05-11T04:00:34.616Z,5.32
2023-05-11T04:06:37.968Z,5.57
2023-05-11T04:12:41.396Z,5.25
2023-05-11T04:18:46.453Z,6.07
2023-05-11T04:24:49.868Z,5.85
2023-05-11T04:30:56.560Z,6.53
2023-05-11T04:37:07.157Z,6.15
2023-05-11T04:43:10.564Z,5.75
2023-05-11T04:49:14.111Z,7.07
2023-05-11T04:55:18.990Z,8.52
2023-05-11T05:01:22.741Z,8.40
2023-05-11T05:07:26.399Z,8.93
2023-05-11T05:13:31.182Z,11.25
2023-05-11T05:19:34.591Z,10.90
2023-05-11T05:25:38.209Z,12.75
2023-05-11T05:31:43.140Z,13.82
2023-05-11T05:37:46.786Z,17.08
2023-05-11T05:43:52.282Z,15.63
2023-05-11T05:49:57.071Z,15.50
2023-05-11T05:56:00.549Z,17.17
2023-05-11T06:02:03.956Z,16.67
2023-05-11T06:08:11.139Z,17.95
2023-05-11T06:14:14.971Z,18.30
2023-05-11T06:20:18.802Z,18.92
2023-05-11T06:26:25.377Z,19.55
2023-05-11T06:32:29.480Z,18.42
2023-05-11T06:38:32.933Z,18.55
2023-05-11T06:44:38.595Z,18.98
2023-05-11T06:50:42.083Z,17.63
2023-05-11T06:56:45.719Z,16.30
2023-05-11T07:02:50.559Z,16.40
2023-05-11T07:08:54.138Z,16.63
2023-05-11T07:14:57.698Z,17.33
2023-05-11T07:21:02.467Z,17.70
2023-05-11T07:27:05.957Z,16.88
2023-05-11T07:33:09.447Z,17.40
2023-05-11T07:39:16.381Z,17.55
2023-05-11T07:45:20.021Z,18.77
2023-05-11T07:51:23.787Z,15.00
2023-05-11T07:57:28.549Z,13.15
2023-05-11T08:03:32.010Z,12.35
2023-05-11T08:09:35.721Z,13.88
2023-05-11T08:15:40.783Z,12.55
2023-05-11T08:21:46.364Z,10.40
2023-05-11T08:27:49.786Z,10.88
2023-05-11T08:33:57.665Z,10.95
2023-05-11T08:40:01.746Z,12.15
2023-05-11T08:46:07.520Z,11.65
2023-05-11T08:52:12.721Z,12.30
2023-05-11T08:58:19.606Z,11.18
2023-05-11T09:04:24.507Z,10.93
2023-05-11T09:10:29.383Z,9.77
2023-05-11T09:16:37.279Z,9.48
2023-05-11T09:22:43.393Z,7.30
2023-05-11T09:29:02.498Z,7.35
2023-05-11T09:35:20.852Z,6.95
2023-05-11T09:41:24.829Z,7.15
2023-05-11T09:47:30.535Z,5.82
2023-05-11T09:53:38.772Z,4.95
2023-05-11T09:59:43.221Z,5.38
2023-05-11T10:05:59.193Z,4.82
2023-05-11T10:12:02.762Z,5.50
2023-05-11T10:18:07.454Z,4.90
2023-05-11T10:24:13.876Z,5.43
2023-05-11T10:30:18.217Z,5.85
2023-05-11T10:36:22.770Z,6.07
2023-05-11T10:42:36.365Z,5.60
2023-05-11T10:48:51.003Z,5.70
2023-05-11T10:55:00.848Z,6.30
2023-05-11T11:01:22.840Z,5.45
2023-05-11T11:07:27.736Z,4.55
2023-05-11T11:13:31.135Z,4.70
2023-05-11T11:19:38.491Z,4.75
2023-05-11T11:25:59.576Z,4.90
2023-05-11T11:32:17.818Z,4.80
2023-05-11T11:38:22.818Z,4.65
2023-05-11T11:44:26.263Z,4.10
2023-05-11T11:50:30.230Z,4.32
2023-05-11T11:56:54.714Z,3.90
2023-05-11T12:02:59.798Z,4.00
2023-05-11T12:09:04.966Z,3.50
2023-05-11T12:15:10.059Z,3.22
2023-05-11T12:21:22.486Z,6.78
2023-05-11T12:27:26.125Z,5.75
2023-05-11T12:33:29.603Z,5.30
2023-05-11T12:39:36.074Z,5.75
2023-05-11T12:45:39.547Z,5.75
2023-05-11T12:52:01.058Z,5.78
2023-05-11T12:58:13.113Z,5.43
2023-05-11T13:04:17.029Z,5.65
2023-05-11T13:10:26.825Z,6.13
2023-05-11T13:16:33.150Z,5.78
2023-05-11T13:22:36.615Z,6.05
2023-05-11T13:28:40.656Z,5.40
2023-05-11T13:34:46.734Z,4.93
2023-05-11T13:40:50.167Z,4.15
2023-05-11T13:46:53.974Z,4.50
2023-05-11T13:52:58.817Z,4.57
2023-05-11T13:59:02.304Z,4.13
2023-05-11T14:05:09.020Z,4.20
2023-05-11T14:11:14.033Z,4.60
2023-05-11T14:17:17.968Z,5.55
2023-05-11T14:23:21.693Z,5.05
2023-05-11T14:29:26.813Z,4.43
2023-05-11T14:35:30.524Z,4.90
2023-05-11T14:41:33.952Z,4.35
2023-05-11T14:47:38.951Z,3.53
2023-05-11T14:53:42.551Z,4.53
2023-05-11T14:59:58.226Z,5.25
2023-05-11T15:06:04.149Z,4.30
2023-05-11T15:12:07.769Z,4.03
2023-05-11T15:18:14.208Z,3.90
2023-05-11T15:24:19.028Z,4.00
2023-05-11T15:30:22.789Z,4.22
2023-05-11T15:36:29.671Z,4.68
2023-05-11T15:42:34.769Z,4.55
2023-05-11T15:48:38.193Z,4.25
2023-05-11T15:54:41.669Z,4.60
2023-05-11T16:00:46.667Z,4.45
2023-05-11T16:06:50.111Z,4.20
2023-05-11T16:12:53.537Z,4.32
2023-05-11T16:19:00.325Z,5.15
2023-05-11T16:25:03.811Z,5.20
2023-05-11T16:31:07.839Z,4.15
2023-05-11T16:37:12.644Z,3.75
2023-05-11T16:43:16.918Z,2.90
2023-05-11T16:49:20.609Z,3.90
2023-05-11T16:55:25.568Z,4.20
2023-05-11T17:01:30.139Z,4.60
2023-05-11T17:07:33.738Z,4.63
2023-05-11T17:13:38.901Z,4.75
2023-05-11T17:19:42.340Z,4.47
2023-05-11T17:25:45.830Z,4.53
2023-05-11T17:31:51.715Z,4.70
2023-05-11T17:37:55.909Z,5.05
2023-05-11T17:43:59.474Z,4.95
2023-05-11T17:50:04.545Z,5.80
2023-05-11T17:56:11.976Z,5.28
2023-05-11T18:02:15.483Z,5.35
2023-05-11T18:08:20.354Z,6.13
2023-05-11T18:14:23.797Z,6.30
2023-05-11T18:20:27.654Z,6.65
2023-05-11T18:26:32.554Z,6.85
2023-05-11T18:32:36.102Z,7.38
2023-05-11T18:38:39.892Z,6.75
2023-05-11T18:44:44.717Z,7.35
2023-05-11T18:50:55.067Z,7.05
2023-05-11T18:56:58.764Z,7.40
2023-05-11T19:03:04.159Z,7.25
2023-05-11T19:09:07.646Z,6.90
2023-05-11T19:15:11.592Z,7.45
2023-05-11T19:21:17.172Z,8.27
2023-05-11T19:27:20.595Z,7.30
2023-05-11T19:33:24.143Z,7.20
2023-05-11T19:39:29.676Z,7.18
2023-05-11T19:45:33.295Z,7.03
2023-05-11T19:51:36.828Z,7.68
2023-05-11T19:57:41.657Z,8.68
2023-05-11T20:03:45.178Z,7.85
2023-05-11T20:09:48.803Z,8.45
2023-05-11T20:15:55.457Z,9.80
2023-05-11T20:21:58.909Z,8.57
2023-05-11T20:28:02.380Z,8.45
2023-05-11T20:34:07.468Z,8.93
2023-05-11T20:40:12.165Z,7.80
2023-05-11T20:46:16.424Z,8.88
2023-05-11T20:52:21.376Z,8.43
2023-05-11T20:58:24.848Z,8.73
2023-05-11T21:04:29.873Z,9.50
2023-05-11T21:10:35.075Z,9.55
2023-05-11T21:16:38.644Z,9.27
2023-05-11T21:22:42.152Z,9.55
2023-05-11T21:28:47.028Z,10.15
2023-05-11T21:34:50.680Z,10.15
2023-05-11T21:40:54.760Z,10.38
2023-05-11T21:46:59.620Z,10.68
2023-05-11T21:53:03.389Z,9.88
2023-05-11T21:59:06.848Z,10.50
2023-05-11T22:05:12.330Z,10.85
2023-05-11T22:11:15.866Z,10.15
2023-05-11T22:17:19.347Z,10.30
2023-05-11T22:23:24.201Z,10.88
2023-05-11T22:29:27.662Z,12.23
2023-05-11T22:35:31.863Z,12.13
2023-05-11T22:41:36.685Z,13.50
2023-05-11T22:47:40.466Z,14.63
2023-05-11T22:53:44.638Z,14.55
2023-05-11T22:59:49.654Z,14.70
2023-05-11T23:05:53.157Z,15.43
2023-05-11T23:11:56.648Z,15.82
2023-05-11T23:18:01.489Z,15.35
2023-05-11T23:24:05.792Z,14.57
2023-05-11T23:30:09.688Z,15.98
2023-05-11T23:36:14.570Z,15.52
2023-05-11T23:42:18.023Z,16.08
2023-05-11T23:48:21.445Z,16.05
2023-05-11T23:54:26.283Z,15.80
